LFOZ

Orléans-Saint-Denis-de-l'Hôtel Airport

Airport
ICAO code
LFOZ
Summary
ICAO Region
EUR
ICAO Territory
Location

, Centre

Serving
Orleans
Elevation
396 ft
Coordinates
47° 53' 49" N , 2° 9' 48" E
Metar
Observation
LFOZ 012300Z AUTO 02005KT 350V060 9999 FEW013 OVC040 05/03 Q1023
Station
Orléans - Saint-Denis-de-l'Hôtel
Date/Time
2022-12-01 23:00:00
Wind direction
20°
Wind speed
05 kts
Lowest cloud amount
few clouds
Temperature
5°C
Dew point
3°C
Humidity
86%
QNH
1023 hPa
Weather condition
n/a

Runways

Designator Length Width Surface Rops
5/23 1392 30 ASP No/No

Airport map

Aerial View

SKYbrary Partners:

Safety knowledge contributed by: